sensor_id;sensor_type;location;lat;lon;timestamp;P1;P2;P0
72307;PMS5003;60257;42.638;23.376;2023-04-15T00:00:13;6.00;6.00;3.00
72307;PMS5003;60257;42.638;23.376;2023-04-15T00:02:40;7.33;4.67;2.33
72307;PMS5003;60257;42.638;23.376;2023-04-15T00:05:05;13.00;11.00;6.00
72307;PMS5003;60257;42.638;23.376;2023-04-15T00:07:31;12.33;12.33;8.67
72307;PMS5003;60257;42.638;23.376;2023-04-15T00:09:57;29.33;27.33;16.67
72307;PMS5003;60257;42.638;23.376;2023-04-15T00:12:26;34.33;29.67;18.33
72307;PMS5003;60257;42.638;23.376;2023-04-15T00:14:52;58.75;44.50;27.75
72307;PMS5003;60257;42.638;23.376;2023-04-15T00:17:18;49.25;39.75;24.25
72307;PMS5003;60257;42.638;23.376;2023-04-15T00:19:44;64.00;49.00;30.25
72307;PMS5003;60257;42.638;23.376;2023-04-15T00:22:10;47.25;39.25;25.00
72307;PMS5003;60257;42.638;23.376;2023-04-15T00:24:36;20.67;15.67;8.00
72307;PMS5003;60257;42.638;23.376;2023-04-15T00:27:02;19.00;18.00;12.00
72307;PMS5003;60257;42.638;23.376;2023-04-15T00:29:28;9.00;9.00;6.00
72307;PMS5003;60257;42.638;23.376;2023-04-15T00:31:54;13.33;13.33;9.00
72307;PMS5003;60257;42.638;23.376;2023-04-15T00:34:21;16.00;13.67;9.00
72307;PMS5003;60257;42.638;23.376;2023-04-15T00:36:47;15.33;12.00;7.00
72307;PMS5003;60257;42.638;23.376;2023-04-15T00:39:13;17.33;15.33;9.00
72307;PMS5003;60257;42.638;23.376;2023-04-15T00:41:40;12.00;10.67;7.00
72307;PMS5003;60257;42.638;23.376;2023-04-15T00:44:06;17.33;16.00;10.33
72307;PMS5003;60257;42.638;23.376;2023-04-15T00:46:32;17.33;16.67;11.00
72307;PMS5003;60257;42.638;23.376;2023-04-15T00:49:01;15.00;15.00;8.00
72307;PMS5003;60257;42.638;23.376;2023-04-15T00:51:28;19.00;17.00;9.67
72307;PMS5003;60257;42.638;23.376;2023-04-15T00:53:55;16.67;15.67;10.33
72307;PMS5003;60257;42.638;23.376;2023-04-15T00:56:20;14.67;14.67;10.33
72307;PMS5003;60257;42.638;23.376;2023-04-15T00:58:48;18.00;17.00;11.00
72307;PMS5003;60257;42.638;23.376;2023-04-15T01:01:15;13.33;13.33;8.00
72307;PMS5003;60257;42.638;23.376;2023-04-15T01:03:45;17.33;17.00;9.00
72307;PMS5003;60257;42.638;23.376;2023-04-15T01:06:11;18.00;13.00;9.00
72307;PMS5003;60257;42.638;23.376;2023-04-15T01:08:38;12.33;12.33;8.00
72307;PMS5003;60257;42.638;23.376;2023-04-15T01:11:03;16.33;14.00;9.67
72307;PMS5003;60257;42.638;23.376;2023-04-15T01:13:29;12.00;12.00;6.67
72307;PMS5003;60257;42.638;23.376;2023-04-15T01:15:59;12.00;10.33;7.00
72307;PMS5003;60257;42.638;23.376;2023-04-15T01:18:25;13.67;11.67;8.00
72307;PMS5003;60257;42.638;23.376;2023-04-15T01:20:52;12.33;10.67;6.67
72307;PMS5003;60257;42.638;23.376;2023-04-15T01:23:17;9.33;8.00;3.33
72307;PMS5003;60257;42.638;23.376;2023-04-15T01:25:44;12.67;9.67;6.00
72307;PMS5003;60257;42.638;23.376;2023-04-15T01:28:10;11.67;11.67;6.00
72307;PMS5003;60257;42.638;23.376;2023-04-15T01:30:36;9.00;8.00;4.00
72307;PMS5003;60257;42.638;23.376;2023-04-15T01:33:02;9.00;9.00;6.00
72307;PMS5003;60257;42.638;23.376;2023-04-15T01:35:27;11.00;10.67;6.00
72307;PMS5003;60257;42.638;23.376;2023-04-15T01:37:53;14.00;10.33;6.00
72307;PMS5003;60257;42.638;23.376;2023-04-15T01:40:23;11.33;11.33;6.67
72307;PMS5003;60257;42.638;23.376;2023-04-15T01:42:48;11.67;10.33;7.00
72307;PMS5003;60257;42.638;23.376;2023-04-15T01:45:13;8.00;7.67;4.00
72307;PMS5003;60257;42.638;23.376;2023-04-15T01:47:39;8.67;8.67;4.67
72307;PMS5003;60257;42.638;23.376;2023-04-15T01:50:05;12.67;11.67;7.00
72307;PMS5003;60257;42.638;23.376;2023-04-15T01:52:30;11.00;9.00;5.00
72307;PMS5003;60257;42.638;23.376;2023-04-15T01:54:56;11.67;11.33;7.00
72307;PMS5003;60257;42.638;23.376;2023-04-15T01:57:22;8.00;8.00;5.33
72307;PMS5003;60257;42.638;23.376;2023-04-15T01:59:47;7.67;7.67;3.33
72307;PMS5003;60257;42.638;23.376;2023-04-15T02:02:12;11.33;11.33;7.00
72307;PMS5003;60257;42.638;23.376;2023-04-15T02:04:38;13.00;11.00;4.00
72307;PMS5003;60257;42.638;23.376;2023-04-15T02:07:04;8.00;8.00;4.33
72307;PMS5003;60257;42.638;23.376;2023-04-15T02:09:29;7.67;7.67;4.33
72307;PMS5003;60257;42.638;23.376;2023-04-15T02:11:55;8.00;8.00;5.33
72307;PMS5003;60257;42.638;23.376;2023-04-15T02:14:21;7.00;5.67;2.00
72307;PMS5003;60257;42.638;23.376;2023-04-15T02:16:46;12.33;9.00;6.00
72307;PMS5003;60257;42.638;23.376;2023-04-15T02:19:12;13.00;11.00;7.00
72307;PMS5003;60257;42.638;23.376;2023-04-15T02:21:38;7.00;7.00;4.33
72307;PMS5003;60257;42.638;23.376;2023-04-15T02:24:03;8.00;8.00;4.67
72307;PMS5003;60257;42.638;23.376;2023-04-15T02:26:29;8.67;8.67;6.00
72307;PMS5003;60257;42.638;23.376;2023-04-15T02:28:57;9.67;8.67;6.33
72307;PMS5003;60257;42.638;23.376;2023-04-15T02:31:23;12.33;9.33;6.00
72307;PMS5003;60257;42.638;23.376;2023-04-15T02:33:49;12.00;12.00;7.00
72307;PMS5003;60257;42.638;23.376;2023-04-15T02:36:14;6.67;6.67;3.67
72307;PMS5003;60257;42.638;23.376;2023-04-15T02:38:40;9.00;9.00;5.67
72307;PMS5003;60257;42.638;23.376;2023-04-15T02:41:07;15.67;12.00;6.00
72307;PMS5003;60257;42.638;23.376;2023-04-15T02:43:34;6.67;6.00;2.00
72307;PMS5003;60257;42.638;23.376;2023-04-15T02:45:59;8.00;8.00;5.00
72307;PMS5003;60257;42.638;23.376;2023-04-15T02:48:25;12.00;9.33;6.00
72307;PMS5003;60257;42.638;23.376;2023-04-15T02:50:51;16.67;12.33;7.00
72307;PMS5003;60257;42.638;23.376;2023-04-15T02:53:16;10.00;10.00;6.00
72307;PMS5003;60257;42.638;23.376;2023-04-15T02:55:41;9.33;9.33;4.33
72307;PMS5003;60257;42.638;23.376;2023-04-15T02:58:07;13.33;9.67;7.00
72307;PMS5003;60257;42.638;23.376;2023-04-15T03:00:32;12.00;12.00;7.00
72307;PMS5003;60257;42.638;23.376;2023-04-15T03:03:03;15.00;13.00;6.33
72307;PMS5003;60257;42.638;23.376;2023-04-15T03:05:30;10.67;10.67;6.00
72307;PMS5003;60257;42.638;23.376;2023-04-15T03:07:55;17.67;16.00;8.00
72307;PMS5003;60257;42.638;23.376;2023-04-15T03:10:21;10.67;10.67;6.00
72307;PMS5003;60257;42.638;23.376;2023-04-15T03:12:47;11.33;10.67;5.00
72307;PMS5003;60257;42.638;23.376;2023-04-15T03:15:12;11.67;10.67;6.00
72307;PMS5003;60257;42.638;23.376;2023-04-15T03:17:38;11.33;9.67;6.33
72307;PMS5003;60257;42.638;23.376;2023-04-15T03:20:04;8.67;6.67;5.00
72307;PMS5003;60257;42.638;23.376;2023-04-15T03:22:30;10.00;10.00;6.00
72307;PMS5003;60257;42.638;23.376;2023-04-15T03:24:56;10.00;8.00;5.00
72307;PMS5003;60257;42.638;23.376;2023-04-15T03:27:22;11.00;9.33;6.00
72307;PMS5003;60257;42.638;23.376;2023-04-15T03:29:48;11.00;11.00;7.00
72307;PMS5003;60257;42.638;23.376;2023-04-15T03:32:13;10.33;10.33;6.67
72307;PMS5003;60257;42.638;23.376;2023-04-15T03:34:42;10.33;10.33;6.33
72307;PMS5003;60257;42.638;23.376;2023-04-15T03:37:08;13.00;13.00;8.33
72307;PMS5003;60257;42.638;23.376;2023-04-15T03:39:33;16.00;14.33;8.33
72307;PMS5003;60257;42.638;23.376;2023-04-15T03:41:59;11.33;11.33;6.33
72307;PMS5003;60257;42.638;23.376;2023-04-15T03:44:26;10.33;10.33;6.33
72307;PMS5003;60257;42.638;23.376;2023-04-15T03:46:52;11.67;11.67;6.67
72307;PMS5003;60257;42.638;23.376;2023-04-15T03:49:18;12.00;11.33;7.00
72307;PMS5003;60257;42.638;23.376;2023-04-15T03:51:44;11.67;11.67;6.67
72307;PMS5003;60257;42.638;23.376;2023-04-15T03:54:10;8.33;8.33;6.00
72307;PMS5003;60257;42.638;23.376;2023-04-15T03:56:36;14.00;14.00;9.33
72307;PMS5003;60257;42.638;23.376;2023-04-15T03:59:02;30.00;23.33;15.00
72307;PMS5003;60257;42.638;23.376;2023-04-15T04:01:27;28.25;27.50;18.00
72307;PMS5003;60257;42.638;23.376;2023-04-15T04:03:53;24.00;21.33;13.00
72307;PMS5003;60257;42.638;23.376;2023-04-15T04:06:18;16.00;15.33;9.67
72307;PMS5003;60257;42.638;23.376;2023-04-15T04:08:44;15.00;15.00;10.00
72307;PMS5003;60257;42.638;23.376;2023-04-15T04:11:09;14.33;14.33;8.33
72307;PMS5003;60257;42.638;23.376;2023-04-15T04:13:35;19.67;17.67;11.00
72307;PMS5003;60257;42.638;23.376;2023-04-15T04:16:00;15.00;15.00;9.33
72307;PMS5003;60257;42.638;23.376;2023-04-15T04:18:26;16.33;15.00;9.00
72307;PMS5003;60257;42.638;23.376;2023-04-15T04:20:52;19.00;19.00;11.00
72307;PMS5003;60257;42.638;23.376;2023-04-15T04:23:17;14.67;11.67;7.00
72307;PMS5003;60257;42.638;23.376;2023-04-15T04:25:43;17.00;16.00;9.00
72307;PMS5003;60257;42.638;23.376;2023-04-15T04:28:08;14.33;12.00;6.00
72307;PMS5003;60257;42.638;23.376;2023-04-15T04:30:34;21.00;19.67;11.33
72307;PMS5003;60257;42.638;23.376;2023-04-15T04:33:00;20.00;20.00;12.00
72307;PMS5003;60257;42.638;23.376;2023-04-15T04:35:25;21.67;21.67;14.00
72307;PMS5003;60257;42.638;23.376;2023-04-15T04:37:51;22.33;21.00;13.33
72307;PMS5003;60257;42.638;23.376;2023-04-15T04:40:17;25.33;23.33;15.67
72307;PMS5003;60257;42.638;23.376;2023-04-15T04:42:44;29.33;29.33;15.67
72307;PMS5003;60257;42.638;23.376;2023-04-15T04:45:09;28.33;28.33;17.00
72307;PMS5003;60257;42.638;23.376;2023-04-15T04:47:35;27.67;25.00;16.33
72307;PMS5003;60257;42.638;23.376;2023-04-15T04:50:01;32.67;31.00;20.00
72307;PMS5003;60257;42.638;23.376;2023-04-15T04:52:27;30.67;26.67;19.67
72307;PMS5003;60257;42.638;23.376;2023-04-15T04:54:53;30.75;30.75;19.00
72307;PMS5003;60257;42.638;23.376;2023-04-15T04:57:18;29.67;27.00;17.33
72307;PMS5003;60257;42.638;23.376;2023-04-15T04:59:43;39.67;33.67;21.67
72307;PMS5003;60257;42.638;23.376;2023-04-15T05:02:09;39.00;33.00;22.00
72307;PMS5003;60257;42.638;23.376;2023-04-15T05:04:35;32.00;30.00;15.67
72307;PMS5003;60257;42.638;23.376;2023-04-15T05:07:01;28.33;26.67;18.33
72307;PMS5003;60257;42.638;23.376;2023-04-15T05:09:26;30.00;27.00;16.33
72307;PMS5003;60257;42.638;23.376;2023-04-15T05:11:52;29.67;25.67;18.00
72307;PMS5003;60257;42.638;23.376;2023-04-15T05:14:17;25.33;25.00;15.00
72307;PMS5003;60257;42.638;23.376;2023-04-15T05:16:43;33.33;28.00;16.00
72307;PMS5003;60257;42.638;23.376;2023-04-15T05:19:08;28.67;26.67;17.33
72307;PMS5003;60257;42.638;23.376;2023-04-15T05:21:34;24.67;22.67;17.00
72307;PMS5003;60257;42.638;23.376;2023-04-15T05:24:00;27.67;27.67;18.00
72307;PMS5003;60257;42.638;23.376;2023-04-15T05:26:25;26.00;21.67;12.00
72307;PMS5003;60257;42.638;23.376;2023-04-15T05:28:51;25.33;25.33;16.33
72307;PMS5003;60257;42.638;23.376;2023-04-15T05:31:17;28.33;25.67;16.00
72307;PMS5003;60257;42.638;23.376;2023-04-15T05:33:42;30.67;28.33;17.67
72307;PMS5003;60257;42.638;23.376;2023-04-15T05:36:08;25.33;24.00;15.67
72307;PMS5003;60257;42.638;23.376;2023-04-15T05:38:33;32.00;29.67;15.67
72307;PMS5003;60257;42.638;23.376;2023-04-15T05:40:59;22.67;21.33;14.33
72307;PMS5003;60257;42.638;23.376;2023-04-15T05:43:24;22.33;22.33;14.00
72307;PMS5003;60257;42.638;23.376;2023-04-15T05:45:50;23.67;23.33;13.00
72307;PMS5003;60257;42.638;23.376;2023-04-15T05:48:16;22.67;21.00;13.00
72307;PMS5003;60257;42.638;23.376;2023-04-15T05:50:41;25.00;23.67;15.00
72307;PMS5003;60257;42.638;23.376;2023-04-15T05:53:07;20.33;20.00;13.67
72307;PMS5003;60257;42.638;23.376;2023-04-15T05:55:33;24.00;21.00;12.00
72307;PMS5003;60257;42.638;23.376;2023-04-15T05:57:58;20.00;20.00;13.67
72307;PMS5003;60257;42.638;23.376;2023-04-15T06:00:24;23.00;23.00;14.33
72307;PMS5003;60257;42.638;23.376;2023-04-15T06:02:50;14.67;14.00;10.33
72307;PMS5003;60257;42.638;23.376;2023-04-15T06:05:16;14.00;14.00;7.67
72307;PMS5003;60257;42.638;23.376;2023-04-15T06:07:42;20.00;17.00;11.00
72307;PMS5003;60257;42.638;23.376;2023-04-15T06:10:17;17.33;16.33;11.33
72307;PMS5003;60257;42.638;23.376;2023-04-15T06:12:43;14.00;13.67;9.00
72307;PMS5003;60257;42.638;23.376;2023-04-15T06:15:08;18.00;16.00;12.00
72307;PMS5003;60257;42.638;23.376;2023-04-15T06:17:34;23.00;19.33;11.00
72307;PMS5003;60257;42.638;23.376;2023-04-15T06:20:00;19.33;18.00;12.00
72307;PMS5003;60257;42.638;23.376;2023-04-15T06:22:26;21.33;18.67;9.67
72307;PMS5003;60257;42.638;23.376;2023-04-15T06:24:51;16.00;16.00;9.00
72307;PMS5003;60257;42.638;23.376;2023-04-15T06:27:17;12.33;12.33;7.67
72307;PMS5003;60257;42.638;23.376;2023-04-15T06:29:43;14.33;14.00;9.33
72307;PMS5003;60257;42.638;23.376;2023-04-15T06:32:08;14.00;12.33;6.33
72307;PMS5003;60257;42.638;23.376;2023-04-15T06:34:34;15.67;15.67;10.00
72307;PMS5003;60257;42.638;23.376;2023-04-15T06:37:00;15.67;10.33;7.33
72307;PMS5003;60257;42.638;23.376;2023-04-15T06:39:25;15.00;14.33;7.67
72307;PMS5003;60257;42.638;23.376;2023-04-15T06:41:51;13.00;11.67;8.00
72307;PMS5003;60257;42.638;23.376;2023-04-15T06:44:17;16.67;15.00;10.00
72307;PMS5003;60257;42.638;23.376;2023-04-15T06:46:42;16.00;16.00;10.00
72307;PMS5003;60257;42.638;23.376;2023-04-15T06:49:09;15.00;15.00;10.00
72307;PMS5003;60257;42.638;23.376;2023-04-15T06:51:35;17.00;15.67;11.00
72307;PMS5003;60257;42.638;23.376;2023-04-15T06:54:01;9.00;8.67;3.00
72307;PMS5003;60257;42.638;23.376;2023-04-15T06:56:30;14.33;11.33;7.33
72307;PMS5003;60257;42.638;23.376;2023-04-15T06:58:56;18.33;16.67;10.00
72307;PMS5003;60257;42.638;23.376;2023-04-15T07:01:21;19.00;15.33;11.00
72307;PMS5003;60257;42.638;23.376;2023-04-15T07:03:47;12.67;11.33;9.00
72307;PMS5003;60257;42.638;23.376;2023-04-15T07:06:12;14.00;12.00;5.00
72307;PMS5003;60257;42.638;23.376;2023-04-15T07:08:38;14.00;11.67;9.00
72307;PMS5003;60257;42.638;23.376;2023-04-15T07:11:03;15.33;14.33;9.67
72307;PMS5003;60257;42.638;23.376;2023-04-15T07:13:29;16.00;11.33;5.67
72307;PMS5003;60257;42.638;23.376;2023-04-15T07:15:56;10.00;10.00;6.00
72307;PMS5003;60257;42.638;23.376;2023-04-15T07:18:22;9.00;6.00;4.00
72307;PMS5003;60257;42.638;23.376;2023-04-15T07:20:47;9.00;9.00;4.00
72307;PMS5003;60257;42.638;23.376;2023-04-15T07:23:12;10.00;10.00;6.00
72307;PMS5003;60257;42.638;23.376;2023-04-15T07:25:38;10.33;9.33;3.67
72307;PMS5003;60257;42.638;23.376;2023-04-15T07:28:03;8.67;8.67;5.00
72307;PMS5003;60257;42.638;23.376;2023-04-15T07:30:29;8.00;6.00;2.00
72307;PMS5003;60257;42.638;23.376;2023-04-15T07:32:54;6.67;6.67;3.67
72307;PMS5003;60257;42.638;23.376;2023-04-15T07:35:20;10.33;10.33;6.33
72307;PMS5003;60257;42.638;23.376;2023-04-15T07:37:46;10.00;9.33;5.00
72307;PMS5003;60257;42.638;23.376;2023-04-15T07:40:12;7.67;7.67;5.00
72307;PMS5003;60257;42.638;23.376;2023-04-15T07:42:39;15.00;13.00;8.33
72307;PMS5003;60257;42.638;23.376;2023-04-15T07:45:05;13.00;13.00;9.00
72307;PMS5003;60257;42.638;23.376;2023-04-15T07:47:30;14.00;12.67;9.00
72307;PMS5003;60257;42.638;23.376;2023-04-15T07:49:56;13.67;11.33;9.00
72307;PMS5003;60257;42.638;23.376;2023-04-15T07:52:21;15.67;12.33;9.00
72307;PMS5003;60257;42.638;23.376;2023-04-15T07:54:47;14.00;14.00;9.00
72307;PMS5003;60257;42.638;23.376;2023-04-15T07:57:12;9.33;9.33;5.00
72307;PMS5003;60257;42.638;23.376;2023-04-15T07:59:38;14.33;12.00;9.00
72307;PMS5003;60257;42.638;23.376;2023-04-15T08:02:03;11.67;11.00;6.00
72307;PMS5003;60257;42.638;23.376;2023-04-15T08:04:29;13.00;11.67;7.33
72307;PMS5003;60257;42.638;23.376;2023-04-15T08:06:55;11.67;11.33;6.33
72307;PMS5003;60257;42.638;23.376;2023-04-15T08:09:20;15.00;12.33;9.00
72307;PMS5003;60257;42.638;23.376;2023-04-15T08:11:47;7.67;7.67;4.67
72307;PMS5003;60257;42.638;23.376;2023-04-15T08:14:13;10.00;10.00;6.00
72307;PMS5003;60257;42.638;23.376;2023-04-15T08:16:39;8.67;8.67;6.00
72307;PMS5003;60257;42.638;23.376;2023-04-15T08:19:05;11.00;11.00;5.67
72307;PMS5003;60257;42.638;23.376;2023-04-15T08:21:31;8.33;7.67;5.00
72307;PMS5003;60257;42.638;23.376;2023-04-15T08:23:56;7.33;7.33;5.00
72307;PMS5003;60257;42.638;23.376;2023-04-15T08:26:22;7.00;6.00;4.00
72307;PMS5003;60257;42.638;23.376;2023-04-15T08:28:48;4.33;4.33;3.00
72307;PMS5003;60257;42.638;23.376;2023-04-15T08:31:14;4.00;4.00;3.00
72307;PMS5003;60257;42.638;23.376;2023-04-15T08:33:41;8.00;5.00;3.00
72307;PMS5003;60257;42.638;23.376;2023-04-15T08:36:06;6.33;6.33;3.00
72307;PMS5003;60257;42.638;23.376;2023-04-15T08:38:32;7.67;7.67;5.00
72307;PMS5003;60257;42.638;23.376;2023-04-15T08:40:59;10.33;7.33;5.33
72307;PMS5003;60257;42.638;23.376;2023-04-15T08:43:31;5.33;5.33;3.00
72307;PMS5003;60257;42.638;23.376;2023-04-15T08:45:58;7.00;6.00;3.67
72307;PMS5003;60257;42.638;23.376;2023-04-15T08:48:27;7.33;7.33;4.33
72307;PMS5003;60257;42.638;23.376;2023-04-15T08:50:53;6.00;5.00;3.00
72307;PMS5003;60257;42.638;23.376;2023-04-15T08:53:23;6.00;6.00;4.00
72307;PMS5003;60257;42.638;23.376;2023-04-15T08:55:50;7.67;6.00;4.00
72307;PMS5003;60257;42.638;23.376;2023-04-15T08:58:16;6.67;6.67;4.00
72307;PMS5003;60257;42.638;23.376;2023-04-15T09:00:43;6.00;6.00;3.33
72307;PMS5003;60257;42.638;23.376;2023-04-15T09:03:09;7.67;7.00;4.33
72307;PMS5003;60257;42.638;23.376;2023-04-15T09:05:35;9.33;8.00;5.67
72307;PMS5003;60257;42.638;23.376;2023-04-15T09:08:02;10.00;8.33;4.67
72307;PMS5003;60257;42.638;23.376;2023-04-15T09:10:29;3.00;3.00;2.00
72307;PMS5003;60257;42.638;23.376;2023-04-15T09:12:55;6.67;5.00;4.00
72307;PMS5003;60257;42.638;23.376;2023-04-15T09:15:23;7.25;6.00;3.00
72307;PMS5003;60257;42.638;23.376;2023-04-15T09:17:49;6.00;4.00;3.00
72307;PMS5003;60257;42.638;23.376;2023-04-15T09:20:15;3.50;3.50;2.25
72307;PMS5003;60257;42.638;23.376;2023-04-15T09:22:45;8.00;7.00;4.00
72307;PMS5003;60257;42.638;23.376;2023-04-15T09:27:52;5.75;4.00;2.75
72307;PMS5003;60257;42.638;23.376;2023-04-15T09:30:21;5.00;4.00;3.00
72307;PMS5003;60257;42.638;23.376;2023-04-15T09:32:56;3.50;3.00;1.75
72307;PMS5003;60257;42.638;23.376;2023-04-15T09:35:24;4.75;3.50;1.00
72307;PMS5003;60257;42.638;23.376;2023-04-15T09:37:52;3.50;2.50;1.00
72307;PMS5003;60257;42.638;23.376;2023-04-15T09:43:02;4.00;3.25;1.00
72307;PMS5003;60257;42.638;23.376;2023-04-15T09:45:29;2.50;2.50;1.25
72307;PMS5003;60257;42.638;23.376;2023-04-15T09:47:59;2.50;2.50;2.00
72307;PMS5003;60257;42.638;23.376;2023-04-15T09:50:41;4.00;4.00;3.00
72307;PMS5003;60257;42.638;23.376;2023-04-15T09:53:11;3.25;3.25;1.50
72307;PMS5003;60257;42.638;23.376;2023-04-15T09:55:53;3.50;2.00;1.50
72307;PMS5003;60257;42.638;23.376;2023-04-15T09:58:20;2.00;2.00;1.00
72307;PMS5003;60257;42.638;23.376;2023-04-15T10:00:47;2.50;2.50;1.00
72307;PMS5003;60257;42.638;23.376;2023-04-15T10:03:17;3.75;3.75;2.00
72307;PMS5003;60257;42.638;23.376;2023-04-15T10:05:47;3.00;3.00;1.00
72307;PMS5003;60257;42.638;23.376;2023-04-15T10:08:19;5.75;5.00;2.25
72307;PMS5003;60257;42.638;23.376;2023-04-15T10:10:46;3.00;3.00;1.75
72307;PMS5003;60257;42.638;23.376;2023-04-15T10:13:16;4.50;4.50;2.25
72307;PMS5003;60257;42.638;23.376;2023-04-15T10:18:37;4.00;1.00;1.00
72307;PMS5003;60257;42.638;23.376;2023-04-15T10:21:07;2.00;2.00;1.00
72307;PMS5003;60257;42.638;23.376;2023-04-15T10:23:34;3.00;2.75;1.75
72307;PMS5003;60257;42.638;23.376;2023-04-15T10:26:01;4.25;3.00;1.75
72307;PMS5003;60257;42.638;23.376;2023-04-15T10:28:28;2.00;2.00;1.00
72307;PMS5003;60257;42.638;23.376;2023-04-15T10:30:54;3.00;3.00;2.00
72307;PMS5003;60257;42.638;23.376;2023-04-15T10:33:21;3.00;3.00;1.75
72307;PMS5003;60257;42.638;23.376;2023-04-15T10:35:49;5.00;3.25;2.00
72307;PMS5003;60257;42.638;23.376;2023-04-15T10:46:17;2.25;2.25;0.25
72307;PMS5003;60257;42.638;23.376;2023-04-15T10:48:51;4.75;4.00;1.75
72307;PMS5003;60257;42.638;23.376;2023-04-15T10:51:28;4.25;1.25;0.25
72307;PMS5003;60257;42.638;23.376;2023-04-15T10:53:55;3.50;3.50;1.00
72307;PMS5003;60257;42.638;23.376;2023-04-15T10:56:22;1.25;1.25;0.00
72307;PMS5003;60257;42.638;23.376;2023-04-15T10:58:48;1.75;0.75;0.50
72307;PMS5003;60257;42.638;23.376;2023-04-15T11:01:13;2.00;2.00;2.00
72307;PMS5003;60257;42.638;23.376;2023-04-15T11:03:39;2.75;2.75;1.75
72307;PMS5003;60257;42.638;23.376;2023-04-15T11:06:07;5.00;4.00;2.00
72307;PMS5003;60257;42.638;23.376;2023-04-15T11:12:07;2.50;2.00;1.50
72307;PMS5003;60257;42.638;23.376;2023-04-15T11:14:35;6.00;6.00;3.00
72307;PMS5003;60257;42.638;23.376;2023-04-15T11:17:04;5.00;5.00;4.00
72307;PMS5003;60257;42.638;23.376;2023-04-15T11:19:36;0.75;0.75;0.75
72307;PMS5003;60257;42.638;23.376;2023-04-15T11:22:09;4.75;3.00;2.00
72307;PMS5003;60257;42.638;23.376;2023-04-15T11:24:36;4.50;2.00;1.75
72307;PMS5003;60257;42.638;23.376;2023-04-15T11:27:19;3.25;3.00;1.00
72307;PMS5003;60257;42.638;23.376;2023-04-15T11:29:45;6.75;2.25;2.00
72307;PMS5003;60257;42.638;23.376;2023-04-15T11:32:11;2.25;2.25;1.25
72307;PMS5003;60257;42.638;23.376;2023-04-15T11:34:36;3.00;2.00;1.00
72307;PMS5003;60257;42.638;23.376;2023-04-15T11:37:05;2.75;2.75;1.00
72307;PMS5003;60257;42.638;23.376;2023-04-15T11:39:31;2.25;2.25;1.75
72307;PMS5003;60257;42.638;23.376;2023-04-15T11:41:57;3.00;3.00;2.00
72307;PMS5003;60257;42.638;23.376;2023-04-15T11:44:23;2.00;1.75;1.50
72307;PMS5003;60257;42.638;23.376;2023-04-15T11:46:48;2.75;2.75;1.00
72307;PMS5003;60257;42.638;23.376;2023-04-15T11:49:29;3.50;3.50;2.00
72307;PMS5003;60257;42.638;23.376;2023-04-15T11:51:55;4.75;3.00;1.00
72307;PMS5003;60257;42.638;23.376;2023-04-15T11:54:20;0.75;0.75;0.00
72307;PMS5003;60257;42.638;23.376;2023-04-15T11:56:50;3.00;3.00;1.00
72307;PMS5003;60257;42.638;23.376;2023-04-15T11:59:16;0.25;0.25;0.00
72307;PMS5003;60257;42.638;23.376;2023-04-15T12:01:42;3.00;3.00;1.00
72307;PMS5003;60257;42.638;23.376;2023-04-15T12:04:11;2.00;2.00;0.00
72307;PMS5003;60257;42.638;23.376;2023-04-15T12:06:37;3.75;3.00;1.75
72307;PMS5003;60257;42.638;23.376;2023-04-15T12:11:36;2.00;2.00;1.00
72307;PMS5003;60257;42.638;23.376;2023-04-15T12:16:48;1.00;1.00;0.25
72307;PMS5003;60257;42.638;23.376;2023-04-15T12:19:27;3.25;2.00;1.00
72307;PMS5003;60257;42.638;23.376;2023-04-15T12:22:02;1.25;1.25;0.00
72307;PMS5003;60257;42.638;23.376;2023-04-15T12:24:32;1.50;1.50;0.75
72307;PMS5003;60257;42.638;23.376;2023-04-15T12:27:10;2.25;2.25;1.00
72307;PMS5003;60257;42.638;23.376;2023-04-15T12:29:37;2.00;2.00;0.75
72307;PMS5003;60257;42.638;23.376;2023-04-15T12:32:05;1.00;1.00;0.75
72307;PMS5003;60257;42.638;23.376;2023-04-15T12:37:03;2.25;2.00;1.00
72307;PMS5003;60257;42.638;23.376;2023-04-15T12:39:31;3.00;3.00;1.00
72307;PMS5003;60257;42.638;23.376;2023-04-15T12:41:59;1.25;1.25;1.00
72307;PMS5003;60257;42.638;23.376;2023-04-15T12:44:25;2.00;2.00;1.00
72307;PMS5003;60257;42.638;23.376;2023-04-15T12:46:52;1.00;1.00;1.00
72307;PMS5003;60257;42.638;23.376;2023-04-15T12:49:17;1.00;1.00;0.00
72307;PMS5003;60257;42.638;23.376;2023-04-15T12:51:45;0.25;0.00;0.00
72307;PMS5003;60257;42.638;23.376;2023-04-15T12:54:13;1.75;1.25;1.00
72307;PMS5003;60257;42.638;23.376;2023-04-15T12:56:40;2.00;1.00;1.00
72307;PMS5003;60257;42.638;23.376;2023-04-15T12:59:06;3.50;2.00;1.00
72307;PMS5003;60257;42.638;23.376;2023-04-15T13:01:32;2.50;2.50;1.50
72307;PMS5003;60257;42.638;23.376;2023-04-15T13:03:57;2.00;2.00;1.00
72307;PMS5003;60257;42.638;23.376;2023-04-15T13:06:23;1.00;1.00;1.00
72307;PMS5003;60257;42.638;23.376;2023-04-15T13:08:49;1.25;1.25;1.00
72307;PMS5003;60257;42.638;23.376;2023-04-15T13:11:15;3.00;2.00;1.00
72307;PMS5003;60257;42.638;23.376;2023-04-15T13:13:41;1.75;1.00;0.00
72307;PMS5003;60257;42.638;23.376;2023-04-15T13:16:07;1.00;1.00;0.00
72307;PMS5003;60257;42.638;23.376;2023-04-15T13:18:33;2.00;2.00;1.00
72307;PMS5003;60257;42.638;23.376;2023-04-15T13:20:59;1.25;1.00;1.00
72307;PMS5003;60257;42.638;23.376;2023-04-15T13:23:25;2.50;2.50;1.00
72307;PMS5003;60257;42.638;23.376;2023-04-15T13:25:51;1.00;1.00;1.00
72307;PMS5003;60257;42.638;23.376;2023-04-15T13:28:17;1.75;1.00;0.00
72307;PMS5003;60257;42.638;23.376;2023-04-15T13:30:42;1.00;1.00;0.25
72307;PMS5003;60257;42.638;23.376;2023-04-15T13:33:08;1.50;1.50;1.00
72307;PMS5003;60257;42.638;23.376;2023-04-15T13:35:34;2.25;1.00;0.00
72307;PMS5003;60257;42.638;23.376;2023-04-15T13:37:59;2.00;2.00;1.00
72307;PMS5003;60257;42.638;23.376;2023-04-15T13:40:25;1.00;1.00;0.75
72307;PMS5003;60257;42.638;23.376;2023-04-15T13:42:50;2.00;2.00;0.75
72307;PMS5003;60257;42.638;23.376;2023-04-15T13:45:17;2.00;2.00;1.00
72307;PMS5003;60257;42.638;23.376;2023-04-15T13:47:43;0.00;0.00;0.00
72307;PMS5003;60257;42.638;23.376;2023-04-15T13:50:09;0.00;0.00;0.00
72307;PMS5003;60257;42.638;23.376;2023-04-15T13:52:34;0.75;0.75;0.00
72307;PMS5003;60257;42.638;23.376;2023-04-15T13:55:00;1.00;1.00;0.00
72307;PMS5003;60257;42.638;23.376;2023-04-15T13:57:26;1.00;1.00;0.00
72307;PMS5003;60257;42.638;23.376;2023-04-15T13:59:52;0.75;0.75;0.00
72307;PMS5003;60257;42.638;23.376;2023-04-15T14:02:19;1.00;1.00;0.00
72307;PMS5003;60257;42.638;23.376;2023-04-15T14:04:47;1.00;1.00;0.00
72307;PMS5003;60257;42.638;23.376;2023-04-15T14:07:12;0.75;0.75;0.00
72307;PMS5003;60257;42.638;23.376;2023-04-15T14:09:38;1.25;1.25;0.00
72307;PMS5003;60257;42.638;23.376;2023-04-15T14:12:03;1.00;1.00;0.25
72307;PMS5003;60257;42.638;23.376;2023-04-15T14:14:29;0.00;0.00;0.00
72307;PMS5003;60257;42.638;23.376;2023-04-15T14:16:55;0.00;0.00;0.00
72307;PMS5003;60257;42.638;23.376;2023-04-15T14:19:21;1.00;0.00;0.00